Time;durP1;ratioP1;P1;durP2;ratioP2;P2;SDS_P1;SDS_P2;PMS_P1;PMS_P2;Temp;Humidity;BMP_temperature;BMP_pressure;BME280_temperature;BME280_humidity;BME280_pressure;Samples;Min_cycle;Max_cycle;Signal;HPM_P1;HPM_P2
2022/05/18 00:01:53;;;;;;;;;;;;;;;;;;4993812;28;19922;-73
2022/05/18 00:04:19;;;;;;;;;;;;;;;;;;4993102;28;20376;-73
2022/05/18 00:06:45;;;;;;;;;;;;;;;;;;5004414;28;19928;-73
2022/05/18 00:09:11;;;;;;;;;;;;;;;;;;4992296;28;19922;-73
2022/05/18 00:11:37;;;;;;;;;;;;;;;;;;4994277;28;19984;-71
2022/05/18 00:14:04;;;;;;;;;;;;;;;;;;4992626;28;19918;-70
2022/05/18 00:16:30;;;;;;;;;;;;;;;;;;4993925;28;19922;-71
2022/05/18 00:18:56;;;;;;;;;;;;;;;;;;5008712;28;19972;-71
2022/05/18 00:21:22;;;;;;;;;;;;;;;;;;5009764;28;20250;-71
2022/05/18 00:23:48;;;;;;;;;;;;;;;;;;5009387;28;19921;-71
2022/05/18 00:26:14;;;;;;;;;;;;;;;;;;4993532;28;19928;-71
2022/05/18 00:28:40;;;;;;;;;;;;;;;;;;4993977;28;20004;-71
2022/05/18 00:31:06;;;;;;;;;;;;;;;;;;4994024;28;19991;-71
2022/05/18 00:33:32;;;;;;;;;;;;;;;;;;5008439;28;20012;-71
2022/05/18 00:35:58;;;;;;;;;;;;;;;;;;4993874;28;19926;-71
2022/05/18 00:38:24;;;;;;;;;;;;;;;;;;5008860;28;20012;-71
2022/05/18 00:40:50;;;;;;;;;;;;;;;;;;4992942;28;20015;-71
2022/05/18 00:43:16;;;;;;;;;;;;;;;;;;4993749;28;19917;-71
2022/05/18 00:45:42;;;;;;;;;;;;;;;;;;4993807;28;19924;-71
2022/05/18 00:48:07;;;;;;;;;;;;;;;;;;4992497;28;20484;-71
2022/05/18 00:50:33;;;;;;;;;;;;;;;;;;4992692;28;20357;-70
2022/05/18 00:52:59;;;;;;;;;;;;;;;;;;4993363;28;19926;-71
2022/05/18 00:55:25;;;;;;;;;;;;;;;;;;5008191;28;19922;-71
2022/05/18 00:57:51;;;;;;;;;;;;;;;;;;5008075;28;20389;-71
2022/05/18 01:00:19;;;;;;;;;;;;;;;;;;4993440;28;19930;-71
2022/05/18 01:02:45;;;;;;;;;;;;;;;;;;4994428;28;19921;-71
2022/05/18 01:05:10;;;;;;;;;;;;;;;;;;4993281;28;20380;-71
2022/05/18 01:07:36;;;;;;;;;;;;;;;;;;4993382;28;19926;-71
2022/05/18 01:10:02;;;;;;;;;;;;;;;;;;4991745;28;19928;-71
2022/05/18 01:12:28;;;;;;;;;;;;;;;;;;4993003;28;19969;-71
2022/05/18 01:14:54;;;;;;;;;;;;;;;;;;5007880;28;20037;-71
2022/05/18 01:17:20;;;;;;;;;;;;;;;;;;4993242;28;19921;-71
2022/05/18 01:19:46;;;;;;;;;;;;;;;;;;4992910;28;19921;-71
2022/05/18 01:22:12;;;;;;;;;;;;;;;;;;5008538;28;19925;-71
2022/05/18 01:24:38;;;;;;;;;;;;;;;;;;4992239;28;19925;-71
2022/05/18 01:27:04;;;;;;;;;;;;;;;;;;4992442;28;19921;-71
2022/05/18 01:29:30;;;;;;;;;;;;;;;;;;4992661;28;20068;-71
2022/05/18 01:31:56;;;;;;;;;;;;;;;;;;4991876;28;19922;-70
2022/05/18 01:34:22;;;;;;;;;;;;;;;;;;4994142;28;19968;-71
2022/05/18 01:36:48;;;;;;;;;;;;;;;;;;4992436;28;19925;-72
2022/05/18 01:39:14;;;;;;;;;;;;;;;;;;4992558;28;19922;-71
2022/05/18 01:41:40;;;;;;;;;;;;;;;;;;4992371;28;20284;-71
2022/05/18 01:44:06;;;;;;;;;;;;;;;;;;4992756;28;19928;-71
2022/05/18 01:46:32;;;;;;;;;;;;;;;;;;4992160;28;19991;-71
2022/05/18 01:48:58;;;;;;;;;;;;;;;;;;4992113;28;20008;-71
2022/05/18 01:51:24;;;;;;;;;;;;;;;;;;5006565;28;19977;-71
2022/05/18 01:53:50;;;;;;;;;;;;;;;;;;4992282;28;19922;-71
2022/05/18 01:56:16;;;;;;;;;;;;;;;;;;4992329;28;19921;-71
2022/05/18 01:58:42;;;;;;;;;;;;;;;;;;4992045;28;19968;-70
2022/05/18 02:01:07;;;;;;;;;;;;;;;;;;5007044;28;19936;-71
2022/05/18 02:03:33;;;;;;;;;;;;;;;;;;4991200;28;19921;-70
2022/05/18 02:05:59;;;;;;;;;;;;;;;;;;5006728;28;19929;-71
2022/05/18 02:08:25;;;;;;;;;;;;;;;;;;4991856;28;19922;-71
2022/05/18 02:10:51;;;;;;;;;;;;;;;;;;4992249;28;19944;-71
2022/05/18 02:13:17;;;;;;;;;;;;;;;;;;4991422;28;19981;-71
2022/05/18 02:15:43;;;;;;;;;;;;;;;;;;4991442;28;20108;-71
2022/05/18 02:18:09;;;;;;;;;;;;;;;;;;5006917;28;20421;-72
2022/05/18 02:20:35;;;;;;;;;;;;;;;;;;4991789;28;19921;-72
2022/05/18 02:23:01;;;;;;;;;;;;;;;;;;5006588;28;19922;-70
2022/05/18 02:25:27;;;;;;;;;;;;;;;;;;4991423;28;20036;-71
2022/05/18 02:27:53;;;;;;;;;;;;;;;;;;4991149;28;19922;-71
2022/05/18 02:30:19;;;;;;;;;;;;;;;;;;4991992;28;20349;-70
2022/05/18 02:32:45;;;;;;;;;;;;;;;;;;4992600;28;19921;-71
2022/05/18 02:35:11;;;;;;;;;;;;;;;;;;4991221;28;19929;-71
2022/05/18 02:37:37;;;;;;;;;;;;;;;;;;4992043;28;19925;-70
2022/05/18 02:40:02;;;;;;;;;;;;;;;;;;4991884;28;19977;-71
2022/05/18 02:42:28;;;;;;;;;;;;;;;;;;5006182;28;19925;-71
2022/05/18 02:44:54;;;;;;;;;;;;;;;;;;4990445;28;19921;-71
2022/05/18 02:47:21;;;;;;;;;;;;;;;;;;4990256;28;20016;-71
2022/05/18 02:49:47;;;;;;;;;;;;;;;;;;5006533;28;20164;-71
2022/05/18 02:52:13;;;;;;;;;;;;;;;;;;4991407;28;19937;-70
2022/05/18 02:57:23;;;;;;;;;;;;;;;;;;4991243;28;19921;-70
2022/05/18 02:59:49;;;;;;;;;;;;;;;;;;4991322;28;20183;-70
2022/05/18 03:02:15;;;;;;;;;;;;;;;;;;4991647;28;19929;-71
2022/05/18 03:04:41;;;;;;;;;;;;;;;;;;4990702;28;19973;-70
2022/05/18 03:07:07;;;;;;;;;;;;;;;;;;4990650;28;19922;-72
2022/05/18 03:09:33;;;;;;;;;;;;;;;;;;4991464;28;20024;-71
2022/05/18 03:11:59;;;;;;;;;;;;;;;;;;4990946;28;19930;-71
2022/05/18 03:14:25;;;;;;;;;;;;;;;;;;4990472;28;19922;-71
2022/05/18 03:16:51;;;;;;;;;;;;;;;;;;5006333;28;20246;-70
2022/05/18 03:19:17;;;;;;;;;;;;;;;;;;4990116;28;20135;-69
2022/05/18 03:24:28;;;;;;;;;;;;;;;;;;4990975;28;19975;-71
2022/05/18 03:26:54;;;;;;;;;;;;;;;;;;4990911;28;19965;-71
2022/05/18 03:29:19;;;;;;;;;;;;;;;;;;4990718;28;19921;-70
2022/05/18 03:31:47;;;;;;;;;;;;;;;;;;4990916;28;19923;-71
2022/05/18 03:34:13;;;;;;;;;;;;;;;;;;4992667;28;19922;-71
2022/05/18 03:36:39;;;;;;;;;;;;;;;;;;4995373;28;19928;-70
2022/05/18 03:39:06;;;;;;;;;;;;;;;;;;4994499;28;19921;-71
2022/05/18 03:41:34;;;;;;;;;;;;;;;;;;4995582;28;19922;-71
2022/05/18 03:44:00;;;;;;;;;;;;;;;;;;4995087;28;19952;-71
2022/05/18 03:46:26;;;;;;;;;;;;;;;;;;4996753;28;20322;-70
2022/05/18 03:48:52;;;;;;;;;;;;;;;;;;4994816;28;20380;-71
2022/05/18 03:51:18;;;;;;;;;;;;;;;;;;4995093;28;20320;-71
2022/05/18 03:53:45;;;;;;;;;;;;;;;;;;4994934;28;19921;-73
2022/05/18 03:56:11;;;;;;;;;;;;;;;;;;4994903;28;19922;-72
2022/05/18 03:58:37;;;;;;;;;;;;;;;;;;4994371;28;19964;-72
2022/05/18 04:01:08;;;;;;;;;;;;;;;;;;5010076;28;19922;-72
2022/05/18 04:03:34;;;;;;;;;;;;;;;;;;4995576;28;19928;-70
2022/05/18 04:06:00;;;;;;;;;;;;;;;;;;4996239;28;20020;-70
2022/05/18 04:08:26;;;;;;;;;;;;;;;;;;4996306;28;19921;-73
2022/05/18 04:10:52;;;;;;;;;;;;;;;;;;4996077;28;19922;-70
2022/05/18 04:13:17;;;;;;;;;;;;;;;;;;4995736;28;19921;-70
2022/05/18 04:15:43;;;;;;;;;;;;;;;;;;4995490;28;20350;-71
2022/05/18 04:18:09;;;;;;;;;;;;;;;;;;4995133;28;19929;-71
2022/05/18 04:20:35;;;;;;;;;;;;;;;;;;5011119;28;19929;-71
2022/05/18 04:23:01;;;;;;;;;;;;;;;;;;4995898;28;20049;-72
2022/05/18 04:25:27;;;;;;;;;;;;;;;;;;4995426;28;19924;-70
2022/05/18 04:27:53;;;;;;;;;;;;;;;;;;4995760;28;19918;-71
2022/05/18 04:30:19;;;;;;;;;;;;;;;;;;4995539;28;19928;-72
2022/05/18 04:32:45;;;;;;;;;;;;;;;;;;5010905;28;19921;-71
2022/05/18 04:35:11;;;;;;;;;;;;;;;;;;4995184;28;20032;-71
2022/05/18 04:37:37;;;;;;;;;;;;;;;;;;4995898;28;19921;-71
2022/05/18 04:40:03;;;;;;;;;;;;;;;;;;4995545;28;19929;-71
2022/05/18 04:42:29;;;;;;;;;;;;;;;;;;4994915;28;19928;-71
2022/05/18 04:44:55;;;;;;;;;;;;;;;;;;4995550;28;19949;-72
2022/05/18 04:47:21;;;;;;;;;;;;;;;;;;4994963;28;19972;-71
2022/05/18 04:49:47;;;;;;;;;;;;;;;;;;4995454;28;19921;-71
2022/05/18 04:52:13;;;;;;;;;;;;;;;;;;4995096;28;19922;-71
2022/05/18 04:54:39;;;;;;;;;;;;;;;;;;4995059;28;19925;-71
2022/05/18 04:57:05;;;;;;;;;;;;;;;;;;4995734;28;20060;-71
2022/05/18 04:59:31;;;;;;;;;;;;;;;;;;4995607;28;19929;-71
2022/05/18 05:01:57;;;;;;;;;;;;;;;;;;4995085;28;19928;-72
2022/05/18 05:04:23;;;;;;;;;;;;;;;;;;4994495;28;20009;-72
2022/05/18 05:06:49;;;;;;;;;;;;;;;;;;4995386;28;19925;-72
2022/05/18 05:09:15;;;;;;;;;;;;;;;;;;4995263;28;19925;-72
2022/05/18 05:11:42;;;;;;;;;;;;;;;;;;4994443;28;19922;-72
2022/05/18 05:14:08;;;;;;;;;;;;;;;;;;4994426;28;19949;-72
2022/05/18 05:16:34;;;;;;;;;;;;;;;;;;4995001;28;19921;-72
2022/05/18 05:19:00;;;;;;;;;;;;;;;;;;5009863;28;19922;-71
2022/05/18 05:21:26;;;;;;;;;;;;;;;;;;4994851;28;19929;-71
2022/05/18 05:23:52;;;;;;;;;;;;;;;;;;4993972;28;19929;-72
2022/05/18 05:26:18;;;;;;;;;;;;;;;;;;4994488;28;20068;-72
2022/05/18 05:28:44;;;;;;;;;;;;;;;;;;4995088;28;19922;-71
2022/05/18 05:31:10;;;;;;;;;;;;;;;;;;5009803;28;20430;-72
2022/05/18 05:33:36;;;;;;;;;;;;;;;;;;4994202;28;19929;-72
2022/05/18 05:36:02;;;;;;;;;;;;;;;;;;4994875;28;20380;-71
2022/05/18 05:38:28;;;;;;;;;;;;;;;;;;5009951;28;20509;-72
2022/05/18 05:40:55;;;;;;;;;;;;;;;;;;4993297;28;20404;-72
2022/05/18 05:43:21;;;;;;;;;;;;;;;;;;4993681;28;20288;-72
2022/05/18 05:45:46;;;;;;;;;;;;;;;;;;4994401;28;19921;-72
2022/05/18 05:48:13;;;;;;;;;;;;;;;;;;4994278;28;20384;-72
2022/05/18 05:50:39;;;;;;;;;;;;;;;;;;4994798;28;19925;-72
2022/05/18 05:53:05;;;;;;;;;;;;;;;;;;4994092;28;20067;-72
2022/05/18 05:55:31;;;;;;;;;;;;;;;;;;4993727;28;20516;-72
2022/05/18 05:57:57;;;;;;;;;;;;;;;;;;4993937;28;20030;-72
2022/05/18 06:00:23;;;;;;;;;;;;;;;;;;4993688;28;19925;-72
2022/05/18 06:02:50;;;;;;;;;;;;;;;;;;4994250;28;19921;-72
2022/05/18 06:05:16;;;;;;;;;;;;;;;;;;4993895;28;20012;-72
2022/05/18 06:07:42;;;;;;;;;;;;;;;;;;4993338;28;20017;-72
2022/05/18 06:10:08;;;;;;;;;;;;;;;;;;4992420;28;20404;-71
2022/05/18 06:12:34;;;;;;;;;;;;;;;;;;4993755;28;19972;-71
2022/05/18 06:15:01;;;;;;;;;;;;;;;;;;4993312;28;19928;-72
2022/05/18 06:17:26;;;;;;;;;;;;;;;;;;4993192;28;19970;-72
2022/05/18 06:19:52;;;;;;;;;;;;;;;;;;4993794;28;20309;-72
2022/05/18 06:22:18;;;;;;;;;;;;;;;;;;4993588;28;20284;-71
2022/05/18 06:24:47;;;;;;;;;;;;;;;;;;4993665;28;19944;-72
2022/05/18 06:27:13;;;;;;;;;;;;;;;;;;4992242;28;20016;-73
2022/05/18 06:29:39;;;;;;;;;;;;;;;;;;4992936;28;20007;-71
2022/05/18 06:32:05;;;;;;;;;;;;;;;;;;4993226;28;19972;-72
2022/05/18 06:34:31;;;;;;;;;;;;;;;;;;4992949;28;19922;-71
2022/05/18 06:36:57;;;;;;;;;;;;;;;;;;4992968;28;19921;-72
2022/05/18 06:39:23;;;;;;;;;;;;;;;;;;4992767;28;19922;-71
2022/05/18 06:41:49;;;;;;;;;;;;;;;;;;4993098;28;20281;-71
2022/05/18 06:44:15;;;;;;;;;;;;;;;;;;4993331;28;19977;-72
2022/05/18 06:46:41;;;;;;;;;;;;;;;;;;4992502;28;19921;-72
2022/05/18 06:49:07;;;;;;;;;;;;;;;;;;4993657;28;19928;-71
2022/05/18 06:51:33;;;;;;;;;;;;;;;;;;4993126;28;20012;-72
2022/05/18 06:53:59;;;;;;;;;;;;;;;;;;4993331;28;19929;-72
2022/05/18 06:56:25;;;;;;;;;;;;;;;;;;4991879;28;20439;-73
2022/05/18 06:58:51;;;;;;;;;;;;;;;;;;5008814;28;19921;-72
2022/05/18 07:01:17;;;;;;;;;;;;;;;;;;4993582;28;20376;-72
2022/05/18 07:03:44;;;;;;;;;;;;;;;;;;4993322;28;19922;-72
2022/05/18 07:06:10;;;;;;;;;;;;;;;;;;4992944;28;19922;-71
2022/05/18 07:08:36;;;;;;;;;;;;;;;;;;4993117;28;20376;-72
2022/05/18 07:11:03;;;;;;;;;;;;;;;;;;4997399;28;19973;-72
2022/05/18 07:13:29;;;;;;;;;;;;;;;;;;4997179;28;20288;-72
2022/05/18 07:15:55;;;;;;;;;;;;;;;;;;5012710;28;19922;-71
2022/05/18 07:18:21;;;;;;;;;;;;;;;;;;4996589;28;20004;-73
2022/05/18 07:20:49;;;;;;;;;;;;;;;;;;4996161;28;20254;-72
2022/05/18 07:23:15;;;;;;;;;;;;;;;;;;4997448;28;20407;-72
2022/05/18 07:25:41;;;;;;;;;;;;;;;;;;4996478;28;20016;-73
2022/05/18 07:28:07;;;;;;;;;;;;;;;;;;4997119;28;19968;-72
2022/05/18 07:30:33;;;;;;;;;;;;;;;;;;4996392;28;20327;-72
2022/05/18 07:32:59;;;;;;;;;;;;;;;;;;4997249;28;19933;-72
2022/05/18 07:35:25;;;;;;;;;;;;;;;;;;4996344;28;19991;-73
2022/05/18 07:37:51;;;;;;;;;;;;;;;;;;4996286;28;20373;-72
2022/05/18 07:40:17;;;;;;;;;;;;;;;;;;5011868;28;20033;-72
2022/05/18 07:42:43;;;;;;;;;;;;;;;;;;4996540;28;19918;-69
2022/05/18 07:45:09;;;;;;;;;;;;;;;;;;4996811;28;19922;-70
2022/05/18 07:47:35;;;;;;;;;;;;;;;;;;4995395;28;20360;-69
2022/05/18 07:50:01;;;;;;;;;;;;;;;;;;4996082;28;20357;-72
2022/05/18 07:52:27;;;;;;;;;;;;;;;;;;4994937;28;19922;-73
2022/05/18 07:54:53;;;;;;;;;;;;;;;;;;4996636;28;20353;-72
2022/05/18 07:57:19;;;;;;;;;;;;;;;;;;5011740;28;19932;-73
2022/05/18 07:59:45;;;;;;;;;;;;;;;;;;4996031;28;19924;-74
2022/05/18 08:02:11;;;;;;;;;;;;;;;;;;4995422;28;20369;-73
2022/05/18 08:04:37;;;;;;;;;;;;;;;;;;5011832;28;19922;-72
2022/05/18 08:07:02;;;;;;;;;;;;;;;;;;4996188;28;20204;-72
2022/05/18 08:09:28;;;;;;;;;;;;;;;;;;4995522;28;19952;-72
2022/05/18 08:17:24;;;;;;;;;;;;;;;;;;4996217;28;19929;-74
2022/05/18 08:19:50;;;;;;;;;;;;;;;;;;4994818;28;19921;-70
2022/05/18 08:22:17;;;;;;;;;;;;;;;;;;5010939;28;20029;-70
2022/05/18 08:24:43;;;;;;;;;;;;;;;;;;4995349;28;20336;-71
2022/05/18 08:27:08;;;;;;;;;;;;;;;;;;4996071;28;19929;-71
2022/05/18 08:29:36;;;;;;;;;;;;;;;;;;5010915;28;20387;-71
2022/05/18 08:32:02;;;;;;;;;;;;;;;;;;4995357;28;20423;-70
2022/05/18 08:34:28;;;;;;;;;;;;;;;;;;4995269;28;20020;-73
2022/05/18 08:36:54;;;;;;;;;;;;;;;;;;4996190;28;19929;-71
2022/05/18 08:39:20;;;;;;;;;;;;;;;;;;4995808;28;20353;-71
2022/05/18 08:41:46;;;;;;;;;;;;;;;;;;4995038;28;19968;-73
2022/05/18 08:44:12;;;;;;;;;;;;;;;;;;4995505;28;19928;-73
2022/05/18 08:46:38;;;;;;;;;;;;;;;;;;4995137;28;19921;-72
2022/05/18 08:49:04;;;;;;;;;;;;;;;;;;4995257;28;19921;-72
2022/05/18 08:51:30;;;;;;;;;;;;;;;;;;4995091;28;19921;-74
2022/05/18 08:53:56;;;;;;;;;;;;;;;;;;4995366;28;19965;-72
2022/05/18 08:56:24;;;;;;;;;;;;;;;;;;4995430;28;19961;-72
2022/05/18 08:58:50;;;;;;;;;;;;;;;;;;4995223;28;19988;-72
2022/05/18 09:01:15;;;;;;;;;;;;;;;;;;4995261;28;19921;-72
2022/05/18 09:03:41;;;;;;;;;;;;;;;;;;5010331;28;19922;-71
2022/05/18 09:06:09;;;;;;;;;;;;;;;;;;4995256;28;19918;-73
2022/05/18 09:08:35;;;;;;;;;;;;;;;;;;5010034;28;20439;-73
2022/05/18 09:11:02;;;;;;;;;;;;;;;;;;4994553;28;19923;-74
2022/05/18 09:13:28;;;;;;;;;;;;;;;;;;4995002;28;19921;-72
2022/05/18 09:15:54;;;;;;;;;;;;;;;;;;4994508;28;19983;-72
2022/05/18 09:18:20;;;;;;;;;;;;;;;;;;4994534;28;19921;-73
2022/05/18 09:20:46;;;;;;;;;;;;;;;;;;5010012;28;19949;-72
2022/05/18 09:23:11;;;;;;;;;;;;;;;;;;4994822;28;19922;-73
2022/05/18 09:25:37;;;;;;;;;;;;;;;;;;4994335;28;19925;-72
2022/05/18 09:28:03;;;;;;;;;;;;;;;;;;4995132;28;20365;-72
2022/05/18 09:30:29;;;;;;;;;;;;;;;;;;4994915;28;19921;-73
2022/05/18 09:32:58;;;;;;;;;;;;;;;;;;4993825;28;20009;-72
2022/05/18 09:35:24;;;;;;;;;;;;;;;;;;4994596;28;19922;-72
2022/05/18 09:37:50;;;;;;;;;;;;;;;;;;4994144;28;20381;-72
2022/05/18 09:40:17;;;;;;;;;;;;;;;;;;4994552;28;19926;-74
2022/05/18 09:42:42;;;;;;;;;;;;;;;;;;4994331;28;20431;-73
2022/05/18 09:45:08;;;;;;;;;;;;;;;;;;5009975;28;20016;-72
2022/05/18 09:47:35;;;;;;;;;;;;;;;;;;4993957;28;19921;-73
2022/05/18 09:50:03;;;;;;;;;;;;;;;;;;4993328;28;19928;-72
2022/05/18 09:52:29;;;;;;;;;;;;;;;;;;4994281;28;20047;-73
2022/05/18 09:54:55;;;;;;;;;;;;;;;;;;4993805;28;19967;-72
2022/05/18 09:57:21;;;;;;;;;;;;;;;;;;4993903;28;19972;-73
2022/05/18 09:59:47;;;;;;;;;;;;;;;;;;4994179;28;19922;-73
2022/05/18 10:07:44;;;;;;;;;;;;;;;;;;4992414;28;20291;-74
2022/05/18 10:10:11;;;;;;;;;;;;;;;;;;4993561;28;19929;-73
2022/05/18 10:12:37;;;;;;;;;;;;;;;;;;4992033;28;20016;-74
2022/05/18 10:15:03;;;;;;;;;;;;;;;;;;5008978;28;19928;-73
2022/05/18 10:17:29;;;;;;;;;;;;;;;;;;4992714;28;20348;-73
2022/05/18 10:19:55;;;;;;;;;;;;;;;;;;4992935;28;19975;-73
2022/05/18 10:22:21;;;;;;;;;;;;;;;;;;4992612;28;20021;-74
2022/05/18 10:24:48;;;;;;;;;;;;;;;;;;5007402;28;20311;-74
2022/05/18 10:27:13;;;;;;;;;;;;;;;;;;5007932;28;20276;-73
2022/05/18 10:29:39;;;;;;;;;;;;;;;;;;4992391;28;19949;-74
2022/05/18 10:32:05;;;;;;;;;;;;;;;;;;4992575;28;19968;-74
2022/05/18 10:34:32;;;;;;;;;;;;;;;;;;4993390;28;19988;-74
2022/05/18 10:36:58;;;;;;;;;;;;;;;;;;4993019;28;20008;-74
2022/05/18 10:39:24;;;;;;;;;;;;;;;;;;4992530;28;19921;-73
2022/05/18 10:41:50;;;;;;;;;;;;;;;;;;4992913;28;19975;-74
2022/05/18 10:44:16;;;;;;;;;;;;;;;;;;4992724;28;19928;-73
2022/05/18 10:46:42;;;;;;;;;;;;;;;;;;4992147;28;20024;-73
2022/05/18 10:49:08;;;;;;;;;;;;;;;;;;4992015;28;20007;-73
2022/05/18 10:51:34;;;;;;;;;;;;;;;;;;4992298;28;20162;-71
2022/05/18 10:54:00;;;;;;;;;;;;;;;;;;4992088;28;20368;-73
2022/05/18 10:56:26;;;;;;;;;;;;;;;;;;4992056;28;19928;-72
2022/05/18 10:58:53;;;;;;;;;;;;;;;;;;4992366;28;19922;-71
2022/05/18 11:01:19;;;;;;;;;;;;;;;;;;4993184;28;19951;-71
2022/05/18 11:03:45;;;;;;;;;;;;;;;;;;4992284;28;19922;-72
2022/05/18 11:06:12;;;;;;;;;;;;;;;;;;4992474;28;20272;-72
2022/05/18 11:08:38;;;;;;;;;;;;;;;;;;4992274;28;19921;-74
2022/05/18 11:11:04;;;;;;;;;;;;;;;;;;4991829;28;20029;-73
2022/05/18 11:13:30;;;;;;;;;;;;;;;;;;4992060;28;19988;-72
2022/05/18 11:15:56;;;;;;;;;;;;;;;;;;5008003;28;19953;-72
2022/05/18 11:18:21;;;;;;;;;;;;;;;;;;4992238;28;19976;-72
2022/05/18 11:20:47;;;;;;;;;;;;;;;;;;5007497;28;19922;-72
2022/05/18 11:23:13;;;;;;;;;;;;;;;;;;4992798;28;19929;-74
2022/05/18 11:25:39;;;;;;;;;;;;;;;;;;5008025;28;19922;-74
2022/05/18 11:28:05;;;;;;;;;;;;;;;;;;4993081;28;20270;-72
2022/05/18 11:30:31;;;;;;;;;;;;;;;;;;4992761;28;19945;-72
2022/05/18 11:32:57;;;;;;;;;;;;;;;;;;5007919;28;19988;-73
2022/05/18 11:35:23;;;;;;;;;;;;;;;;;;4990459;28;19921;-74
2022/05/18 11:37:49;;;;;;;;;;;;;;;;;;4991386;28;19932;-71
2022/05/18 11:40:15;;;;;;;;;;;;;;;;;;4992794;28;19922;-77
2022/05/18 11:42:41;;;;;;;;;;;;;;;;;;5008026;28;20349;-78
2022/05/18 11:45:07;;;;;;;;;;;;;;;;;;4991787;28;19925;-73
2022/05/18 11:47:33;;;;;;;;;;;;;;;;;;4991636;28;19925;-73
2022/05/18 11:49:59;;;;;;;;;;;;;;;;;;5007746;28;19926;-72
2022/05/18 11:52:25;;;;;;;;;;;;;;;;;;4992704;28;19922;-72
2022/05/18 11:54:51;;;;;;;;;;;;;;;;;;4993067;28;19977;-73
2022/05/18 11:57:17;;;;;;;;;;;;;;;;;;4995942;28;19922;-73
2022/05/18 11:59:51;;;;;;;;;;;;;;;;;;4996050;28;19945;-74
2022/05/18 12:02:20;;;;;;;;;;;;;;;;;;4996074;28;19925;-72
2022/05/18 12:04:46;;;;;;;;;;;;;;;;;;4995870;28;19922;-73
2022/05/18 12:07:12;;;;;;;;;;;;;;;;;;5011492;28;19928;-72
2022/05/18 12:09:38;;;;;;;;;;;;;;;;;;4995216;28;20348;-72
2022/05/18 12:12:04;;;;;;;;;;;;;;;;;;4996712;28;19929;-72
2022/05/18 12:14:30;;;;;;;;;;;;;;;;;;4995986;28;19921;-72
2022/05/18 12:16:56;;;;;;;;;;;;;;;;;;4996164;28;19928;-72
2022/05/18 12:19:22;;;;;;;;;;;;;;;;;;4996062;28;20033;-72
2022/05/18 12:21:48;;;;;;;;;;;;;;;;;;5011105;28;19933;-73
2022/05/18 12:24:14;;;;;;;;;;;;;;;;;;4996602;28;19922;-73
2022/05/18 12:26:40;;;;;;;;;;;;;;;;;;4996005;28;19949;-72
2022/05/18 12:29:06;;;;;;;;;;;;;;;;;;5011000;28;19917;-72
2022/05/18 12:31:32;;;;;;;;;;;;;;;;;;4996127;28;19922;-73
2022/05/18 12:33:58;;;;;;;;;;;;;;;;;;4995725;28;19922;-73
2022/05/18 12:36:24;;;;;;;;;;;;;;;;;;5011555;28;20411;-72
2022/05/18 12:38:50;;;;;;;;;;;;;;;;;;4995670;28;19921;-73
2022/05/18 12:41:16;;;;;;;;;;;;;;;;;;4995893;28;19976;-72
2022/05/18 12:43:42;;;;;;;;;;;;;;;;;;4995885;28;19921;-72
2022/05/18 12:46:08;;;;;;;;;;;;;;;;;;4995164;28;19922;-72
2022/05/18 12:48:34;;;;;;;;;;;;;;;;;;4995940;28;20254;-72
2022/05/18 12:51:00;;;;;;;;;;;;;;;;;;4995232;28;19921;-73
2022/05/18 12:53:26;;;;;;;;;;;;;;;;;;4995538;28;19922;-72
2022/05/18 12:55:52;;;;;;;;;;;;;;;;;;4995294;28;20411;-72
2022/05/18 12:58:18;;;;;;;;;;;;;;;;;;4995737;28;19921;-72
2022/05/18 13:00:44;;;;;;;;;;;;;;;;;;4995309;28;19980;-73
2022/05/18 13:03:10;;;;;;;;;;;;;;;;;;4995272;28;19922;-73
2022/05/18 13:05:36;;;;;;;;;;;;;;;;;;4995409;28;20387;-72
2022/05/18 13:08:02;;;;;;;;;;;;;;;;;;4995102;28;20064;-72
2022/05/18 13:10:27;;;;;;;;;;;;;;;;;;4995190;28;19921;-72
2022/05/18 13:12:54;;;;;;;;;;;;;;;;;;4994860;28;20022;-72
2022/05/18 13:15:20;;;;;;;;;;;;;;;;;;4995258;28;20072;-72
2022/05/18 13:17:46;;;;;;;;;;;;;;;;;;4995109;28;20420;-73
2022/05/18 13:20:11;;;;;;;;;;;;;;;;;;5010028;28;19924;-72
2022/05/18 13:22:38;;;;;;;;;;;;;;;;;;4995280;28;19977;-72
2022/05/18 13:25:04;;;;;;;;;;;;;;;;;;4994562;28;19921;-72
2022/05/18 13:27:30;;;;;;;;;;;;;;;;;;4994746;28;20392;-72
2022/05/18 13:29:56;;;;;;;;;;;;;;;;;;4994422;28;20421;-72
2022/05/18 13:32:22;;;;;;;;;;;;;;;;;;5010664;28;19921;-72
2022/05/18 13:34:48;;;;;;;;;;;;;;;;;;4994625;28;19928;-72
2022/05/18 13:37:14;;;;;;;;;;;;;;;;;;5010121;28;19976;-72
2022/05/18 13:39:40;;;;;;;;;;;;;;;;;;4994656;28;19926;-72
2022/05/18 13:42:06;;;;;;;;;;;;;;;;;;5009910;28;20351;-72
2022/05/18 13:44:32;;;;;;;;;;;;;;;;;;4994608;28;19922;-72
2022/05/18 13:46:57;;;;;;;;;;;;;;;;;;4993925;28;19922;-72
2022/05/18 13:49:24;;;;;;;;;;;;;;;;;;4994508;28;19932;-73
2022/05/18 13:51:50;;;;;;;;;;;;;;;;;;4994715;28;19952;-73
2022/05/18 13:54:16;;;;;;;;;;;;;;;;;;4994624;28;20312;-74
2022/05/18 13:56:42;;;;;;;;;;;;;;;;;;4994608;28;20261;-74
2022/05/18 13:59:08;;;;;;;;;;;;;;;;;;4994081;28;19929;-71
2022/05/18 14:01:34;;;;;;;;;;;;;;;;;;4994267;28;19921;-71
2022/05/18 14:04:00;;;;;;;;;;;;;;;;;;4994017;28;19928;-71
2022/05/18 14:06:26;;;;;;;;;;;;;;;;;;4994394;28;19928;-71
2022/05/18 14:08:54;;;;;;;;;;;;;;;;;;4993916;28;19926;-72
2022/05/18 14:11:20;;;;;;;;;;;;;;;;;;4993793;28;19973;-70
2022/05/18 14:13:46;;;;;;;;;;;;;;;;;;4994247;28;20395;-71
2022/05/18 14:16:12;;;;;;;;;;;;;;;;;;4993945;28;20013;-72
2022/05/18 14:18:38;;;;;;;;;;;;;;;;;;4993398;28;19929;-71
2022/05/18 14:21:06;;;;;;;;;;;;;;;;;;4993388;28;19948;-71
2022/05/18 14:23:32;;;;;;;;;;;;;;;;;;4994062;28;20301;-71
2022/05/18 14:26:02;;;;;;;;;;;;;;;;;;4993867;28;20020;-71
2022/05/18 14:28:28;;;;;;;;;;;;;;;;;;4993465;28;19921;-71
2022/05/18 14:30:54;;;;;;;;;;;;;;;;;;4993776;28;20353;-70
2022/05/18 14:33:20;;;;;;;;;;;;;;;;;;4994075;28;20008;-71
2022/05/18 14:35:46;;;;;;;;;;;;;;;;;;4993736;28;20393;-71
2022/05/18 14:38:11;;;;;;;;;;;;;;;;;;4993498;28;19922;-71
2022/05/18 14:40:37;;;;;;;;;;;;;;;;;;4993469;28;19921;-71
2022/05/18 14:43:03;;;;;;;;;;;;;;;;;;4993297;28;19929;-71
2022/05/18 14:45:29;;;;;;;;;;;;;;;;;;4993835;28;20025;-71
2022/05/18 14:47:55;;;;;;;;;;;;;;;;;;5009211;28;19928;-72
2022/05/18 14:50:21;;;;;;;;;;;;;;;;;;4993060;28;19965;-71
2022/05/18 14:52:47;;;;;;;;;;;;;;;;;;4992942;28;19921;-71
2022/05/18 14:55:13;;;;;;;;;;;;;;;;;;5008350;28;20016;-72
2022/05/18 14:57:39;;;;;;;;;;;;;;;;;;4993720;28;19926;-72
2022/05/18 15:00:05;;;;;;;;;;;;;;;;;;4992774;28;19921;-71
2022/05/18 15:02:31;;;;;;;;;;;;;;;;;;4993260;28;19921;-74
2022/05/18 15:04:57;;;;;;;;;;;;;;;;;;4993590;28;19969;-75
2022/05/18 15:07:26;;;;;;;;;;;;;;;;;;4993218;28;19976;-73
2022/05/18 15:09:52;;;;;;;;;;;;;;;;;;4993257;28;20004;-71
2022/05/18 15:12:18;;;;;;;;;;;;;;;;;;4992943;28;20377;-71
2022/05/18 15:14:44;;;;;;;;;;;;;;;;;;4992220;28;19992;-71
2022/05/18 15:17:10;;;;;;;;;;;;;;;;;;4993107;28;20285;-72
2022/05/18 15:19:36;;;;;;;;;;;;;;;;;;4992633;28;19926;-73
2022/05/18 15:22:02;;;;;;;;;;;;;;;;;;4992843;28;19928;-72
2022/05/18 15:24:28;;;;;;;;;;;;;;;;;;4992952;28;20324;-75
2022/05/18 15:26:54;;;;;;;;;;;;;;;;;;4993247;28;19969;-74
2022/05/18 15:29:20;;;;;;;;;;;;;;;;;;4992664;28;19917;-74
2022/05/18 15:31:46;;;;;;;;;;;;;;;;;;4997046;28;19937;-74
2022/05/18 15:34:12;;;;;;;;;;;;;;;;;;4996065;28;19929;-74
2022/05/18 15:36:38;;;;;;;;;;;;;;;;;;4996791;28;19921;-73
2022/05/18 15:39:04;;;;;;;;;;;;;;;;;;4996361;28;19926;-74
2022/05/18 15:41:30;;;;;;;;;;;;;;;;;;4996494;28;19928;-74
2022/05/18 15:43:56;;;;;;;;;;;;;;;;;;4997020;28;19928;-73
2022/05/18 15:46:22;;;;;;;;;;;;;;;;;;4995194;28;19977;-73
2022/05/18 15:48:48;;;;;;;;;;;;;;;;;;4997113;28;19929;-73
2022/05/18 15:51:14;;;;;;;;;;;;;;;;;;4996519;28;20000;-74
2022/05/18 15:53:40;;;;;;;;;;;;;;;;;;4996369;28;19932;-74
2022/05/18 15:56:06;;;;;;;;;;;;;;;;;;4995937;28;19922;-73
2022/05/18 15:58:32;;;;;;;;;;;;;;;;;;4995066;28;19922;-74
2022/05/18 16:00:58;;;;;;;;;;;;;;;;;;4996109;28;20032;-75
2022/05/18 16:03:24;;;;;;;;;;;;;;;;;;4995300;28;19929;-73
2022/05/18 16:05:51;;;;;;;;;;;;;;;;;;4996232;28;19921;-74
2022/05/18 16:08:17;;;;;;;;;;;;;;;;;;4995537;28;19922;-74
2022/05/18 16:10:43;;;;;;;;;;;;;;;;;;5011083;28;19976;-75
2022/05/18 16:13:09;;;;;;;;;;;;;;;;;;4993055;28;19925;-75
2022/05/18 16:15:36;;;;;;;;;;;;;;;;;;4994555;28;19929;-76
2022/05/18 16:18:02;;;;;;;;;;;;;;;;;;5010244;28;19922;-76
2022/05/18 16:20:28;;;;;;;;;;;;;;;;;;5010687;28;19988;-75
2022/05/18 16:22:54;;;;;;;;;;;;;;;;;;4994736;28;19957;-74
2022/05/18 16:25:20;;;;;;;;;;;;;;;;;;5009980;28;20486;-75
2022/05/18 16:27:46;;;;;;;;;;;;;;;;;;5010403;28;19922;-74
2022/05/18 16:30:12;;;;;;;;;;;;;;;;;;4993819;28;19930;-74
2022/05/18 16:32:38;;;;;;;;;;;;;;;;;;4994219;28;19922;-76
2022/05/18 16:35:04;;;;;;;;;;;;;;;;;;4995064;28;19973;-83
2022/05/18 16:37:30;;;;;;;;;;;;;;;;;;5010613;28;19921;-74
2022/05/18 16:39:56;;;;;;;;;;;;;;;;;;5011071;28;19921;-74
2022/05/18 16:42:22;;;;;;;;;;;;;;;;;;5010241;28;19922;-73
2022/05/18 16:44:50;;;;;;;;;;;;;;;;;;4995384;28;19929;-74
2022/05/18 16:47:16;;;;;;;;;;;;;;;;;;5008851;28;19928;-79
2022/05/18 16:49:42;;;;;;;;;;;;;;;;;;5010610;28;20025;-78
2022/05/18 16:52:08;;;;;;;;;;;;;;;;;;5010319;28;19980;-75
2022/05/18 16:54:35;;;;;;;;;;;;;;;;;;5010490;28;19922;-74